Time;durP1;ratioP1;P1;durP2;ratioP2;P2;SDS_P1;SDS_P2;PMS_P1;PMS_P2;Temp;Humidity;BMP_temperature;BMP_pressure;BME280_temperature;BME280_humidity;BME280_pressure;Samples;Min_cycle;Max_cycle;Signal;HPM_P1;HPM_P2
2021/06/10 13:33:26;;;;;;;3.17;2.30;;;;;;;23.37;60.44;99881.66;1673839;81;21072;-69
2021/06/10 13:35:56;;;;;;;2.85;2.00;;;;;;;23.31;60.70;99881.61;1597229;88;21113;-72
2021/06/10 13:38:24;;;;;;;3.35;2.08;;;;;;;23.27;61.23;99874.32;1581861;87;21305;-71
2021/06/10 13:40:51;;;;;;;6.08;2.72;;;;;;;23.23;60.91;99883.44;1598691;88;21273;-72
2021/06/10 13:43:24;;;;;;;2.33;2.10;;;;;;;23.17;61.04;99878.77;1582294;89;21221;-70
2021/06/10 13:45:52;;;;;;;2.20;2.00;;;;;;;23.20;60.66;99882.47;1567317;89;21198;-71
2021/06/10 13:48:20;;;;;;;2.77;2.02;;;;;;;23.28;60.16;99871.07;1576095;90;21191;-70
2021/06/10 13:50:48;;;;;;;2.50;2.12;;;;;;;23.40;60.71;99874.94;1574637;90;21442;-70
2021/06/10 13:53:16;;;;;;;3.40;2.50;;;;;;;23.57;60.54;99864.89;1587881;86;21192;-71
2021/06/10 13:55:44;;;;;;;2.12;1.92;;;;;;;23.72;59.03;99857.91;1639862;86;21078;-70
2021/06/10 13:58:13;;;;;;;2.60;2.08;;;;;;;23.83;59.09;99859.23;1662482;85;21499;-70
2021/06/10 14:00:41;;;;;;;2.95;2.02;;;;;;;23.89;57.72;99860.63;1644550;85;21205;-70
2021/06/10 14:03:09;;;;;;;2.27;2.05;;;;;;;23.84;58.30;99856.83;1669521;85;21980;-70
2021/06/10 14:05:37;;;;;;;3.22;2.10;;;;;;;23.69;59.34;99848.73;1667519;85;21184;-70
2021/06/10 14:08:05;;;;;;;2.50;2.22;;;;;;;23.69;59.34;99848.73;1662068;85;21072;-69
2021/06/10 14:10:44;;;;;;;3.50;1.98;;;;;;;23.64;59.31;99853.98;1661765;84;21159;-67
2021/06/10 14:13:34;;;;;;;2.10;1.90;;;;;;;23.60;59.11;99856.28;1641069;86;21186;-70
2021/06/10 14:16:04;;;;;;;2.67;2.00;;;;;;;23.67;60.01;99853.58;1647158;85;21517;-69
2021/06/10 14:18:31;;;;;;;3.25;2.08;;;;;;;23.72;58.91;99861.50;1666261;85;21152;-70
2021/06/10 14:21:00;;;;;;;3.65;2.40;;;;;;;23.63;59.15;99863.23;1667633;85;21163;-69
2021/06/10 14:23:28;;;;;;;3.83;2.47;;;;;;;23.48;60.11;99866.63;1659536;85;21113;-68
2021/06/10 14:25:56;;;;;;;2.85;2.47;;;;;;;23.39;60.70;99874.08;1674728;85;21022;-69
2021/06/10 14:28:24;;;;;;;3.60;2.60;;;;;;;23.28;61.08;99876.53;1676331;85;22499;-69
2021/06/10 14:31:13;;;;;;;3.62;2.62;;;;;;;22.98;63.39;99881.34;1669175;85;21093;-69
2021/06/10 14:33:24;;;;;;;2.95;2.27;;;;;;;22.98;63.39;99881.34;1669535;85;21072;-73
2021/06/10 14:35:51;;;;;;;3.35;2.52;;;;;;;22.85;63.91;99879.85;1659980;85;21085;-75
2021/06/10 14:38:21;;;;;;;2.67;2.27;;;;;;;22.72;64.47;99887.41;1666038;85;21136;-68
2021/06/10 14:40:50;;;;;;;2.40;2.20;;;;;;;22.60;64.55;99891.12;1654223;86;21439;-69
2021/06/10 14:43:18;;;;;;;2.30;2.10;;;;;;;22.46;64.58;99898.84;1637258;86;21040;-69
2021/06/10 14:45:46;;;;;;;1.92;1.70;;;;;;;22.20;63.92;99883.52;1629915;87;21126;-69
2021/06/10 14:48:14;;;;;;;5.00;1.77;;;;;;;22.20;63.92;99883.52;1627427;87;21148;-69
2021/06/10 14:50:42;;;;;;;2.87;1.87;;;;;;;21.98;64.44;99877.17;1659634;86;21201;-69
2021/06/10 14:53:10;;;;;;;3.83;2.00;;;;;;;21.98;64.44;99877.17;1652867;86;21270;-69
2021/06/10 14:55:38;;;;;;;2.47;1.72;;;;;;;21.91;63.56;99869.41;1660491;86;21087;-69
2021/06/10 14:58:10;;;;;;;4.15;2.45;;;;;;;21.82;63.82;99858.77;1660127;86;21517;-68
2021/06/10 15:00:37;;;;;;;3.00;2.00;;;;;;;21.76;64.11;99859.02;1654894;86;21142;-68
2021/06/10 15:03:05;;;;;;;5.20;2.17;;;;;;;21.69;64.35;99864.89;1659071;86;21072;-68
2021/06/10 15:05:32;;;;;;;2.22;1.70;;;;;;;21.61;64.83;99886.79;1638202;86;21265;-68
2021/06/10 15:08:00;;;;;;;4.37;1.70;;;;;;;21.53;65.83;99892.35;1657347;85;21141;-68
2021/06/10 15:10:28;;;;;;;3.00;1.98;;;;;;;21.47;66.72;99898.02;1658449;86;21001;-65
2021/06/10 15:12:56;;;;;;;5.62;2.22;;;;;;;21.44;67.47;99912.02;1654619;85;21034;-67
2021/06/10 15:15:25;;;;;;;3.75;2.37;;;;;;;21.43;67.37;99909.50;1659118;86;21122;-69
2021/06/10 15:17:54;;;;;;;3.77;2.12;;;;;;;21.42;67.46;99918.19;1654770;85;22346;-67
2021/06/10 15:20:23;;;;;;;2.55;2.15;;;;;;;21.39;67.47;99922.65;1659746;86;21096;-67
2021/06/10 15:22:52;;;;;;;4.75;2.10;;;;;;;21.37;67.71;99919.24;1654951;84;21668;-68
2021/06/10 15:25:20;;;;;;;3.85;1.98;;;;;;;21.35;68.07;99917.74;1659228;85;21109;-68
2021/06/10 15:27:48;;;;;;;3.15;2.20;;;;;;;21.34;68.26;99917.44;1654266;86;21016;-67
2021/06/10 15:30:18;;;;;;;3.02;1.92;;;;;;;21.32;68.59;99903.98;1656872;84;21261;-68
2021/06/10 15:32:46;;;;;;;3.22;2.40;;;;;;;21.29;69.03;99902.98;1627668;86;21169;-69
2021/06/10 15:35:14;;;;;;;6.40;2.47;;;;;;;21.27;69.34;99905.57;1658869;86;21151;-67
2021/06/10 15:37:42;;;;;;;5.15;2.17;;;;;;;21.23;69.83;99896.92;1638013;86;21416;-67
2021/06/10 15:40:11;;;;;;;3.67;2.08;;;;;;;21.17;70.44;99890.31;1657561;86;21192;-67
2021/06/10 15:42:38;;;;;;;3.12;2.05;;;;;;;21.14;70.52;99888.50;1656822;86;21436;-67
2021/06/10 15:45:08;;;;;;;2.85;2.10;;;;;;;21.10;70.84;99881.72;1659700;86;21469;-66
2021/06/10 15:47:37;;;;;;;5.55;2.60;;;;;;;21.05;71.12;99882.23;1653118;86;21170;-67
2021/06/10 15:50:07;;;;;;;3.62;2.70;;;;;;;21.01;71.32;99889.06;1660607;86;21016;-66
2021/06/10 15:52:35;;;;;;;4.78;3.27;;;;;;;20.97;71.59;99890.48;1655618;86;21043;-67
2021/06/10 15:55:05;;;;;;;5.20;2.90;;;;;;;20.94;71.87;99894.09;1658499;86;21442;-67
2021/06/10 15:57:32;;;;;;;3.92;2.52;;;;;;;20.92;71.76;99898.86;1653333;85;21120;-67
2021/06/10 16:00:05;;;;;;;4.75;2.55;;;;;;;20.90;71.78;99899.05;1657826;86;21080;-66
2021/06/10 16:02:35;;;;;;;3.75;2.37;;;;;;;20.89;71.65;99903.31;1659624;86;21139;-66
2021/06/10 16:05:05;;;;;;;2.98;2.10;;;;;;;20.85;71.73;99908.27;1659365;85;21557;-67
2021/06/10 16:07:33;;;;;;;2.80;2.15;;;;;;;20.81;71.89;99911.56;1652843;86;21505;-66
2021/06/10 16:10:01;;;;;;;5.78;2.00;;;;;;;20.75;71.98;99917.20;1660296;85;21171;-67
2021/06/10 16:12:29;;;;;;;2.70;1.90;;;;;;;20.74;71.71;99917.40;1656275;85;21494;-66
2021/06/10 16:14:57;;;;;;;2.58;2.10;;;;;;;20.70;71.43;99915.04;1658134;86;21041;-68
2021/06/10 16:17:25;;;;;;;3.75;2.15;;;;;;;20.68;71.64;99915.72;1654014;85;21039;-67
2021/06/10 16:19:54;;;;;;;3.35;2.33;;;;;;;20.68;71.73;99913.53;1658285;86;21445;-67
2021/06/10 16:22:23;;;;;;;2.90;2.25;;;;;;;20.69;72.20;99908.40;1655759;85;21067;-68
2021/06/10 16:24:51;;;;;;;4.25;2.27;;;;;;;20.75;72.29;99919.10;1660095;85;21117;-68
2021/06/10 16:27:19;;;;;;;4.37;2.33;;;;;;;20.78;72.48;99920.09;1659636;86;21634;-68
2021/06/10 16:29:48;;;;;;;4.80;2.55;;;;;;;20.83;72.11;99918.52;1653599;86;21159;-67
2021/06/10 16:32:15;;;;;;;5.08;2.80;;;;;;;20.85;71.91;99917.80;1656933;86;22391;-67
2021/06/10 16:34:43;;;;;;;6.55;2.60;;;;;;;20.86;71.39;99917.30;1657086;85;21154;-68
2021/06/10 16:37:11;;;;;;;3.83;2.42;;;;;;;20.88;71.51;99919.34;1653752;86;21173;-68
2021/06/10 16:39:39;;;;;;;3.17;2.47;;;;;;;20.92;71.16;99920.14;1659208;85;21090;-67
2021/06/10 16:42:11;;;;;;;6.08;2.60;;;;;;;20.95;70.89;99929.81;1654933;86;21616;-68
2021/06/10 16:44:39;;;;;;;4.10;2.83;;;;;;;20.92;70.83;99922.86;1659091;86;23540;-68
2021/06/10 16:47:07;;;;;;;4.83;2.42;;;;;;;20.90;70.90;99920.84;1660524;85;21016;-68
2021/06/10 16:49:38;;;;;;;4.53;2.15;;;;;;;20.87;71.13;99923.94;1653447;86;21142;-68
2021/06/10 16:52:06;;;;;;;3.12;2.22;;;;;;;20.85;71.03;99929.21;1657643;86;21038;-67
2021/06/10 16:54:35;;;;;;;6.50;3.17;;;;;;;20.83;71.13;99924.47;1656595;86;21520;-68
2021/06/10 16:57:04;;;;;;;8.58;3.85;;;;;;;20.80;71.33;99923.47;1661075;85;22172;-66
2021/06/10 16:59:32;;;;;;;6.65;3.55;;;;;;;20.78;71.09;99918.73;1660477;86;21114;-68
2021/06/10 17:02:12;;;;;;;7.45;2.90;;;;;;;20.74;71.15;99912.80;1660775;85;21012;-66
2021/06/10 17:04:36;;;;;;;5.12;3.20;;;;;;;20.71;70.96;99909.91;1660037;85;21421;-66
2021/06/10 17:07:08;;;;;;;5.03;2.60;;;;;;;20.67;71.12;99907.23;1661433;85;21461;-66
2021/06/10 17:09:36;;;;;;;3.60;2.37;;;;;;;20.64;71.43;99909.47;1660782;86;22357;-66
2021/06/10 17:12:05;;;;;;;4.20;2.22;;;;;;;20.59;71.47;99907.78;1633113;87;21541;-66
2021/06/10 17:14:33;;;;;;;6.70;2.37;;;;;;;20.55;71.80;99912.73;1633354;86;21578;-67
2021/06/10 17:17:04;;;;;;;2.80;2.30;;;;;;;20.49;72.15;99908.02;1658727;85;21084;-67
2021/06/10 17:19:32;;;;;;;2.40;2.02;;;;;;;20.44;72.34;99909.59;1633446;86;21116;-70
2021/06/10 17:22:00;;;;;;;3.67;2.10;;;;;;;20.38;72.69;99911.69;1607181;87;22144;-68
2021/06/10 17:24:28;;;;;;;10.82;6.25;;;;;;;20.31;72.92;99916.14;1605718;87;21069;-70
2021/06/10 17:26:59;;;;;;;11.78;6.75;;;;;;;20.22;73.36;99923.45;1606895;89;21061;-67
2021/06/10 17:29:26;;;;;;;8.78;5.55;;;;;;;20.14;73.81;99921.64;1605562;89;21054;-68
2021/06/10 17:31:54;;;;;;;5.17;3.75;;;;;;;20.12;74.22;99925.03;1606110;87;21562;-68
2021/06/10 17:34:23;;;;;;;5.45;3.80;;;;;;;20.10;74.47;99928.45;1605651;89;22342;-70
2021/06/10 17:36:51;;;;;;;8.45;4.00;;;;;;;20.10;74.83;99933.04;1605326;89;21189;-67
2021/06/10 17:39:18;;;;;;;10.10;6.67;;;;;;;20.07;75.13;99935.61;1605845;87;21180;-67
2021/06/10 17:41:47;;;;;;;13.83;8.08;;;;;;;20.03;75.27;99947.86;1605710;89;21105;-67
2021/06/10 17:44:15;;;;;;;15.68;7.28;;;;;;;19.99;75.64;99953.30;1605765;89;21569;-67
2021/06/10 17:46:43;;;;;;;12.63;6.87;;;;;;;19.92;75.83;99957.75;1605366;89;21236;-68
2021/06/10 17:49:11;;;;;;;13.35;6.90;;;;;;;19.85;76.20;99962.72;1660650;86;21155;-67
2021/06/10 17:51:38;;;;;;;11.78;6.37;;;;;;;19.80;76.69;99966.45;1632969;87;21074;-67
2021/06/10 17:54:08;;;;;;;15.98;6.03;;;;;;;19.76;77.05;99956.44;1603323;89;21078;-67
2021/06/10 17:56:36;;;;;;;14.03;6.30;;;;;;;19.75;77.27;99964.28;1660865;86;21024;-67
2021/06/10 17:59:03;;;;;;;16.45;7.42;;;;;;;19.72;77.52;99965.98;1632696;87;21425;-67
2021/06/10 18:01:31;;;;;;;20.88;9.43;;;;;;;19.70;77.64;99973.45;1660795;86;21587;-67
2021/06/10 18:04:01;;;;;;;16.77;7.92;;;;;;;19.70;77.65;99976.17;1633092;87;21457;-68
2021/06/10 18:06:30;;;;;;;13.32;5.80;;;;;;;19.69;77.61;99978.57;1632403;87;21461;-69
2021/06/10 18:08:58;;;;;;;13.85;5.80;;;;;;;19.67;77.41;99973.80;1632594;86;21167;-68
2021/06/10 18:11:26;;;;;;;9.90;5.30;;;;;;;19.59;77.60;99986.88;1607005;89;22086;-67
2021/06/10 18:13:54;;;;;;;9.25;5.33;;;;;;;19.55;77.78;99986.92;1607141;89;21149;-66
2021/06/10 18:16:22;;;;;;;11.30;5.55;;;;;;;19.55;78.06;99992.35;1605182;89;21100;-66
2021/06/10 18:18:55;;;;;;;11.30;5.37;;;;;;;19.57;78.26;99994.37;1606795;89;21203;-67
2021/06/10 18:21:20;;;;;;;15.03;6.35;;;;;;;19.59;78.14;99990.14;1604893;89;21112;-66
2021/06/10 18:23:48;;;;;;;15.18;7.15;;;;;;;19.61;78.20;99995.73;1606884;89;21392;-66
2021/06/10 18:26:18;;;;;;;15.28;8.38;;;;;;;19.61;78.29;100000.31;1605160;89;21039;-66
2021/06/10 18:28:46;;;;;;;19.73;9.70;;;;;;;19.61;78.38;99990.80;1607167;89;21050;-66
2021/06/10 18:31:14;;;;;;;14.60;7.80;;;;;;;19.58;78.48;99985.21;1633396;87;21083;-65
2021/06/10 18:33:42;;;;;;;17.32;8.00;;;;;;;19.55;78.75;99984.70;1633961;87;21169;-66
2021/06/10 18:36:10;;;;;;;15.75;7.42;;;;;;;19.53;79.07;99982.65;1633940;87;22820;-66
2021/06/10 18:38:39;;;;;;;18.40;7.40;;;;;;;19.50;79.25;99982.99;1634282;86;21118;-66
2021/06/10 18:41:07;;;;;;;33.35;14.00;;;;;;;19.43;79.20;99978.75;1633470;87;21108;-67
2021/06/10 18:43:35;;;;;;;318.67;144.00;;;;;;;19.36;79.58;99974.16;1634010;87;21023;-66
2021/06/10 18:46:04;;;;;;;321.18;148.55;;;;;;;19.30;79.79;99979.75;1633982;87;21130;-66
2021/06/10 18:48:32;;;;;;;258.70;126.12;;;;;;;19.27;80.11;99971.95;1634106;87;21428;-66
2021/06/10 18:51:00;;;;;;;177.65;87.67;;;;;;;19.24;80.27;99969.57;1633802;87;21119;-71
2021/06/10 18:53:29;;;;;;;124.55;61.90;;;;;;;19.23;80.41;99961.61;1633658;87;21068;-66
2021/06/10 18:55:57;;;;;;;131.37;62.60;;;;;;;19.22;80.48;99959.40;1633978;87;21037;-65
2021/06/10 18:58:25;;;;;;;101.35;49.48;;;;;;;19.13;80.19;99960.42;1634084;87;21092;-66
2021/06/10 19:00:53;;;;;;;76.45;38.67;;;;;;;19.02;80.50;99962.11;1633976;87;22871;-65
2021/06/10 19:03:21;;;;;;;55.30;27.55;;;;;;;18.86;80.89;99953.45;1633539;87;21203;-67
2021/06/10 19:05:49;;;;;;;46.90;26.37;;;;;;;18.72;81.46;99955.45;1634376;87;21042;-66
2021/06/10 19:08:17;;;;;;;36.42;19.73;;;;;;;18.65;82.15;99963.92;1634093;87;21023;-65
2021/06/10 19:10:45;;;;;;;36.25;20.45;;;;;;;18.64;82.60;99958.14;1630588;86;21089;-66
2021/06/10 19:13:14;;;;;;;36.80;17.95;;;;;;;18.65;82.73;99958.50;1628172;88;21634;-66
2021/06/10 19:15:46;;;;;;;36.85;20.15;;;;;;;18.69;82.69;99957.66;1628159;87;21175;-66
2021/06/10 19:18:16;;;;;;;38.10;19.53;;;;;;;18.71;82.80;99962.40;1628554;88;21549;-66
2021/06/10 19:20:44;;;;;;;31.45;16.75;;;;;;;18.71;82.56;99952.90;1628932;87;21149;-65
2021/06/10 19:23:12;;;;;;;33.05;17.27;;;;;;;18.62;82.61;99961.05;1628371;88;21157;-66
2021/06/10 19:25:40;;;;;;;21.93;11.88;;;;;;;18.56;82.62;99964.94;1628023;88;22056;-65
2021/06/10 19:28:07;;;;;;;10.95;7.03;;;;;;;18.44;82.82;99964.34;1628472;88;21159;-66
2021/06/10 19:30:40;;;;;;;11.75;7.17;;;;;;;18.36;82.90;99962.13;1603826;89;21191;-66
2021/06/10 19:33:05;;;;;;;13.70;7.75;;;;;;;18.28;83.17;99960.73;1603719;89;21465;-66
2021/06/10 19:35:34;;;;;;;16.93;8.90;;;;;;;18.24;83.64;99958.88;1626073;88;21125;-66
2021/06/10 19:38:02;;;;;;;20.15;9.63;;;;;;;18.24;83.70;99967.52;1603865;89;22158;-68
2021/06/10 19:40:30;;;;;;;21.77;11.83;;;;;;;18.26;83.88;99958.70;1602595;88;21161;-66
2021/06/10 19:42:58;;;;;;;17.42;10.65;;;;;;;18.28;83.96;99959.38;1602137;88;21045;-66
2021/06/10 19:45:26;;;;;;;14.00;7.92;;;;;;;18.30;84.05;99961.44;1602017;89;21106;-66
2021/06/10 19:47:54;;;;;;;11.55;7.67;;;;;;;18.29;84.00;99955.16;1601960;88;21083;-66
2021/06/10 19:50:24;;;;;;;11.65;6.50;;;;;;;18.29;84.01;99959.72;1602014;89;21275;-66
2021/06/10 19:52:52;;;;;;;14.18;7.42;;;;;;;18.26;84.07;99956.84;1602120;89;21486;-65
2021/06/10 19:55:21;;;;;;;30.40;14.30;;;;;;;18.27;84.28;99962.62;1602059;89;21137;-66
2021/06/10 19:57:49;;;;;;;42.43;18.48;;;;;;;18.25;84.18;99951.56;1601853;89;21038;-65
2021/06/10 20:00:23;;;;;;;33.13;17.95;;;;;;;18.18;84.17;99951.38;1602135;89;21067;-66
2021/06/10 20:02:49;;;;;;;25.12;13.72;;;;;;;18.09;84.71;99950.50;1602109;89;21277;-66
2021/06/10 20:05:18;;;;;;;21.93;11.68;;;;;;;18.05;85.04;99941.49;1602049;89;21037;-66
2021/06/10 20:07:46;;;;;;;19.98;11.50;;;;;;;18.02;85.24;99936.40;1601764;89;21095;-67
2021/06/10 20:10:14;;;;;;;13.53;8.83;;;;;;;18.01;85.29;99934.72;1610792;86;21096;-66
2021/06/10 20:12:44;;;;;;;16.97;9.35;;;;;;;18.00;85.44;99931.66;1659001;85;21076;-66
2021/06/10 20:15:13;;;;;;;13.30;7.87;;;;;;;17.98;85.60;99927.73;1658842;86;22132;-67
2021/06/10 20:17:41;;;;;;;16.17;9.05;;;;;;;17.96;85.72;99923.50;1632554;87;22242;-66
2021/06/10 20:20:12;;;;;;;16.30;8.33;;;;;;;17.94;85.76;99925.03;1661117;85;21020;-66
2021/06/10 20:22:41;;;;;;;10.85;7.00;;;;;;;17.90;85.76;99913.31;1660949;85;21202;-66
2021/06/10 20:25:12;;;;;;;8.98;6.40;;;;;;;17.82;85.97;99915.47;1661069;86;21057;-66
2021/06/10 20:30:28;;;;;;;14.33;6.35;;;;;;;17.77;86.39;99911.56;1660466;86;21028;-66
2021/06/10 20:32:55;;;;;;;11.08;6.22;;;;;;;17.74;86.47;99915.45;1660994;86;21108;-66
2021/06/10 20:35:23;;;;;;;12.95;6.28;;;;;;;17.74;86.39;99915.45;1661148;86;21211;-67
2021/06/10 20:37:51;;;;;;;9.75;6.47;;;;;;;17.72;86.25;99915.24;1661203;85;21642;-66
2021/06/10 20:40:20;;;;;;;10.35;6.58;;;;;;;17.67;86.41;99908.13;1660515;86;21989;-67
2021/06/10 20:42:49;;;;;;;10.28;6.47;;;;;;;17.64;86.48;99903.88;1661101;85;21091;-66
2021/06/10 20:45:18;;;;;;;10.63;6.08;;;;;;;17.62;86.72;99904.53;1660961;86;21429;-66
2021/06/10 20:47:46;;;;;;;7.70;5.65;;;;;;;17.62;86.89;99903.17;1661031;85;21096;-66
2021/06/10 20:50:14;;;;;;;8.70;5.47;;;;;;;17.59;86.86;99900.29;1661392;85;21126;-67
2021/06/10 20:52:43;;;;;;;6.35;5.22;;;;;;;17.53;87.26;99910.89;1661106;85;21412;-66
2021/06/10 20:55:11;;;;;;;7.17;4.97;;;;;;;17.44;87.77;99908.66;1660890;86;21600;-66
2021/06/10 20:57:39;;;;;;;10.82;4.87;;;;;;;17.40;88.32;99913.19;1660959;85;21437;-66
2021/06/10 21:00:11;;;;;;;8.20;5.10;;;;;;;17.35;88.90;99915.53;1660932;86;21103;-66
2021/06/10 21:02:42;;;;;;;7.55;5.08;;;;;;;17.30;89.47;99917.36;1660421;86;21068;-67
2021/06/10 21:05:12;;;;;;;8.05;4.70;;;;;;;17.26;90.08;99917.82;1635249;86;22216;-67
2021/06/10 21:07:40;;;;;;;6.75;5.42;;;;;;;17.23;90.46;99921.70;1661069;85;21052;-65
2021/06/10 21:10:10;;;;;;;11.73;4.72;;;;;;;17.21;90.85;99922.88;1660980;85;20997;-66
2021/06/10 21:12:40;;;;;;;6.35;4.95;;;;;;;17.20;91.19;99917.96;1660732;85;21740;-69
2021/06/10 21:15:10;;;;;;;6.92;5.22;;;;;;;17.22;91.47;99917.81;1660889;86;21457;-66
2021/06/10 21:17:39;;;;;;;7.55;5.53;;;;;;;17.26;91.55;99920.52;1660975;86;21300;-64
2021/06/10 21:20:08;;;;;;;7.40;5.45;;;;;;;17.30;91.48;99924.13;1660873;86;21039;-65
2021/06/10 21:22:38;;;;;;;7.20;5.03;;;;;;;17.35;91.33;99923.16;1661041;86;21012;-65
2021/06/10 21:25:08;;;;;;;6.67;5.05;;;;;;;17.39;90.99;99929.94;1660652;85;21610;-67
2021/06/10 21:27:36;;;;;;;8.05;5.60;;;;;;;17.41;90.64;99925.23;1661043;86;21040;-65
2021/06/10 21:30:06;;;;;;;10.25;5.17;;;;;;;17.42;90.48;99930.14;1660963;86;22128;-65
2021/06/10 21:32:34;;;;;;;10.72;5.50;;;;;;;17.42;90.49;99932.32;1660915;85;21127;-65
2021/06/10 21:35:03;;;;;;;7.97;5.95;;;;;;;17.42;90.46;99927.44;1660961;85;21079;-66
2021/06/10 21:37:31;;;;;;;7.05;5.10;;;;;;;17.40;90.53;99932.14;1660876;85;21103;-64
2021/06/10 21:39:59;;;;;;;5.97;4.95;;;;;;;17.38;90.56;99932.32;1660883;86;21091;-67
2021/06/10 21:42:28;;;;;;;7.53;5.20;;;;;;;17.35;90.76;99931.78;1660765;86;21429;-67
2021/06/10 21:44:56;;;;;;;7.87;4.85;;;;;;;17.34;90.91;99934.14;1660634;86;21509;-66
2021/06/10 21:47:25;;;;;;;8.30;5.53;;;;;;;17.32;91.03;99934.81;1660871;86;21069;-68
2021/06/10 21:49:53;;;;;;;6.17;4.72;;;;;;;17.28;91.24;99938.34;1660815;86;21183;-66
2021/06/10 21:52:21;;;;;;;8.08;5.15;;;;;;;17.27;91.41;99941.20;1661814;85;21556;-65
2021/06/10 21:54:49;;;;;;;8.15;4.92;;;;;;;17.25;91.60;99942.72;1660947;86;21212;-67
2021/06/10 21:57:17;;;;;;;6.15;4.22;;;;;;;17.25;91.79;99944.58;1660645;86;21164;-65
2021/06/10 21:59:45;;;;;;;6.22;5.10;;;;;;;17.22;91.93;99941.69;1660876;86;21535;-67
2021/06/10 22:02:12;;;;;;;7.35;5.05;;;;;;;17.21;92.03;99950.81;1660985;86;21080;-66
2021/06/10 22:04:41;;;;;;;7.55;5.00;;;;;;;17.22;91.97;99940.83;1660913;86;21172;-67
2021/06/10 22:07:09;;;;;;;6.25;4.80;;;;;;;17.20;91.77;99936.91;1660652;86;22159;-67
2021/06/10 22:09:37;;;;;;;7.78;5.12;;;;;;;17.20;91.76;99943.69;1660796;86;21056;-67
2021/06/10 22:12:07;;;;;;;8.43;5.35;;;;;;;17.21;92.12;99948.60;1630589;85;21109;-66
2021/06/10 22:14:38;;;;;;;6.63;5.33;;;;;;;17.21;92.28;99948.60;1628664;87;21042;-68
2021/06/10 22:17:06;;;;;;;6.47;5.33;;;;;;;17.20;92.39;99941.47;1628508;87;21050;-72
2021/06/10 22:19:35;;;;;;;9.88;4.70;;;;;;;17.21;92.35;99947.25;1627975;88;22380;-67
2021/06/10 22:22:04;;;;;;;7.22;4.97;;;;;;;17.19;92.42;99949.27;1628517;87;21114;-66
2021/06/10 22:24:32;;;;;;;8.00;5.08;;;;;;;17.10;92.94;99949.20;1628007;88;21549;-66
2021/06/10 22:27:00;;;;;;;8.43;5.30;;;;;;;17.05;93.59;99949.33;1628458;87;21141;-66
2021/06/10 22:29:28;;;;;;;9.05;5.10;;;;;;;17.02;94.01;99942.38;1628222;87;21160;-67
2021/06/10 22:31:57;;;;;;;5.70;4.78;;;;;;;17.03;94.09;99934.58;1628355;87;21253;-66
2021/06/10 22:34:24;;;;;;;6.58;4.62;;;;;;;17.04;94.24;99937.65;1628555;87;21807;-66
2021/06/10 22:36:53;;;;;;;6.20;4.50;;;;;;;17.02;94.38;99945.59;1628574;87;21109;-66
2021/06/10 22:39:20;;;;;;;6.90;4.95;;;;;;;16.99;94.40;99947.25;1628157;87;21140;-68
2021/06/10 22:41:49;;;;;;;9.10;5.87;;;;;;;16.93;94.50;99943.30;1628560;87;21220;-66
2021/06/10 22:44:16;;;;;;;11.40;5.80;;;;;;;16.89;94.68;99944.61;1628323;88;21329;-66
2021/06/10 22:46:47;;;;;;;7.92;5.15;;;;;;;16.83;94.93;99949.29;1628452;87;21045;-66
2021/06/10 22:49:15;;;;;;;5.72;4.75;;;;;;;16.79;95.24;99951.98;1628755;87;21104;-66
2021/06/10 22:51:43;;;;;;;7.42;4.97;;;;;;;16.79;95.42;99947.08;1628017;87;21185;-66
2021/06/10 22:54:12;;;;;;;11.75;5.20;;;;;;;16.77;95.50;99947.71;1628690;87;21546;-67
2021/06/10 22:56:40;;;;;;;8.13;4.70;;;;;;;16.76;95.40;99952.27;1628449;87;21882;-66
2021/06/10 22:59:09;;;;;;;7.92;4.58;;;;;;;16.75;95.12;99960.06;1629066;87;21474;-67
2021/06/10 23:01:37;;;;;;;5.08;4.55;;;;;;;16.71;94.70;99959.16;1628206;87;21490;-70
2021/06/10 23:04:08;;;;;;;6.78;4.90;;;;;;;16.63;94.68;99954.51;1628735;87;21380;-66
2021/06/10 23:06:37;;;;;;;6.90;4.55;;;;;;;16.57;95.08;99951.06;1628512;87;21054;-66
2021/06/10 23:09:07;;;;;;;5.03;4.05;;;;;;;16.56;95.51;99954.80;1628571;86;21351;-66
2021/06/10 23:11:34;;;;;;;5.60;4.90;;;;;;;16.58;95.70;99948.72;1649153;85;21110;-67
2021/06/10 23:14:02;;;;;;;9.75;4.80;;;;;;;16.59;95.70;99959.91;1660908;86;21096;-66
2021/06/10 23:16:31;;;;;;;7.22;4.58;;;;;;;16.61;95.65;99959.23;1661027;86;21136;-66
2021/06/10 23:19:01;;;;;;;5.78;4.65;;;;;;;16.59;95.37;99967.52;1661222;85;21139;-66
2021/06/10 23:21:29;;;;;;;6.70;4.45;;;;;;;16.50;95.42;99964.33;1660993;85;22315;-67
2021/06/10 23:23:57;;;;;;;6.42;4.67;;;;;;;16.41;95.68;99963.89;1660537;86;21064;-72
2021/06/10 23:26:25;;;;;;;8.05;5.05;;;;;;;16.35;96.03;99960.95;1660939;86;21056;-66
2021/06/10 23:28:55;;;;;;;10.78;5.10;;;;;;;16.29;96.34;99954.80;1661074;86;21104;-66
2021/06/10 23:31:23;;;;;;;9.78;5.20;;;;;;;16.29;96.78;99965.61;1661067;86;21100;-66
2021/06/10 23:33:51;;;;;;;5.87;4.75;;;;;;;16.32;96.64;99969.36;1660671;84;22824;-66
2021/06/10 23:36:19;;;;;;;6.97;4.62;;;;;;;16.32;96.43;99974.77;1661011;85;21504;-66
2021/06/10 23:38:47;;;;;;;8.78;4.62;;;;;;;16.30;96.54;99965.45;1661568;85;21027;-67
2021/06/10 23:41:15;;;;;;;6.08;4.70;;;;;;;16.31;96.53;99971.22;1660913;86;21547;-67
2021/06/10 23:43:45;;;;;;;5.95;4.83;;;;;;;16.31;96.36;99965.80;1660920;86;21060;-67
2021/06/10 23:46:12;;;;;;;8.88;5.03;;;;;;;16.30;96.11;99973.55;1660693;85;21426;-66
2021/06/10 23:48:41;;;;;;;8.65;4.80;;;;;;;16.22;96.04;99976.19;1660691;86;21025;-68
2021/06/10 23:51:08;;;;;;;5.58;4.92;;;;;;;16.14;96.33;99977.92;1661170;85;21020;-67
2021/06/10 23:53:36;;;;;;;7.25;4.65;;;;;;;16.10;96.78;99971.46;1660940;86;21004;-67
2021/06/10 23:56:04;;;;;;;9.35;5.47;;;;;;;16.12;96.92;99974.52;1660663;86;21064;-67
2021/06/10 23:58:32;;;;;;;7.45;4.97;;;;;;;16.14;96.97;99972.02;1660985;86;21758;-66
